createdAt,value
2023-12-28T00:02:21.192Z,3.50
2023-12-28T00:04:48.520Z,3.20
2023-12-28T00:07:16.275Z,3.10
2023-12-28T00:09:43.559Z,4.00
2023-12-28T00:12:10.864Z,3.28
2023-12-28T00:14:38.130Z,3.97
2023-12-28T00:17:05.557Z,3.30
2023-12-28T00:19:32.934Z,3.92
2023-12-28T00:22:00.217Z,3.97
2023-12-28T00:24:30.229Z,4.32
2023-12-28T00:27:00.212Z,4.03
2023-12-28T00:29:29.835Z,4.22
2023-12-28T00:31:57.291Z,3.22
2023-12-28T00:34:24.838Z,3.80
2023-12-28T00:36:52.234Z,3.78
2023-12-28T00:39:19.614Z,3.70
2023-12-28T00:41:46.866Z,3.28
2023-12-28T00:44:14.116Z,4.28
2023-12-28T00:46:41.345Z,3.85
2023-12-28T00:49:09.688Z,4.13
2023-12-28T00:51:37.988Z,5.55
2023-12-28T00:54:05.365Z,4.95
2023-12-28T00:56:33.757Z,4.65
2023-12-28T00:59:03.135Z,5.32
2023-12-28T01:01:31.925Z,4.22
2023-12-28T01:03:59.376Z,4.47
2023-12-28T01:06:30.221Z,4.65
2023-12-28T01:08:57.671Z,4.70
2023-12-28T01:11:24.930Z,4.93
2023-12-28T01:13:54.736Z,5.05
2023-12-28T01:16:22.197Z,3.40
2023-12-28T01:18:49.677Z,4.78
2023-12-28T01:21:17.092Z,4.93
2023-12-28T01:23:44.390Z,5.22
2023-12-28T01:26:18.347Z,5.47
2023-12-28T01:28:45.680Z,4.93
2023-12-28T01:31:13.058Z,4.53
2023-12-28T01:33:40.649Z,4.35
2023-12-28T01:36:22.353Z,5.10
2023-12-28T01:38:49.943Z,5.00
2023-12-28T01:41:17.309Z,5.03
2023-12-28T01:43:44.605Z,5.22
2023-12-28T01:46:19.993Z,4.72
2023-12-28T01:48:50.390Z,5.07
2023-12-28T01:51:18.349Z,5.25
2023-12-28T01:53:46.162Z,4.97
2023-12-28T01:56:13.624Z,4.93
2023-12-28T01:58:45.556Z,5.22
2023-12-28T02:01:13.229Z,4.80
2023-12-28T02:03:40.696Z,5.53
2023-12-28T02:06:08.292Z,5.55
2023-12-28T02:08:35.948Z,5.75
2023-12-28T02:11:05.133Z,5.10
2023-12-28T02:13:32.386Z,4.35
2023-12-28T02:16:07.599Z,5.32
2023-12-28T02:18:44.990Z,4.97
2023-12-28T02:21:13.533Z,5.90
2023-12-28T02:23:40.761Z,5.47
2023-12-28T02:26:07.967Z,4.60
2023-12-28T02:28:35.212Z,5.60
2023-12-28T02:31:02.656Z,5.45
2023-12-28T02:33:43.051Z,5.43
2023-12-28T02:36:12.735Z,5.20
2023-12-28T02:38:40.416Z,5.10
2023-12-28T02:41:07.776Z,4.90
2023-12-28T02:43:36.747Z,5.40
2023-12-28T02:46:04.232Z,5.55
2023-12-28T02:48:31.751Z,6.18
2023-12-28T02:50:59.174Z,5.45
2023-12-28T02:53:26.400Z,5.28
2023-12-28T02:55:53.665Z,4.85
2023-12-28T02:58:21.015Z,5.57
2023-12-28T03:00:50.027Z,5.30
2023-12-28T03:03:17.561Z,5.20
2023-12-28T03:05:44.860Z,5.60
2023-12-28T03:08:12.334Z,5.63
2023-12-28T03:10:40.291Z,5.80
2023-12-28T03:13:09.409Z,6.13
2023-12-28T03:15:36.715Z,6.78
2023-12-28T03:18:06.670Z,5.72
2023-12-28T03:20:34.202Z,5.65
2023-12-28T03:23:01.585Z,5.70
2023-12-28T03:25:28.832Z,5.53
2023-12-28T03:27:56.363Z,5.07
2023-12-28T03:30:23.911Z,4.70
2023-12-28T03:32:51.711Z,5.68
2023-12-28T03:35:19.389Z,5.75
2023-12-28T03:37:46.926Z,5.47
2023-12-28T03:40:14.941Z,4.88
2023-12-28T03:42:43.376Z,6.15
2023-12-28T03:45:13.923Z,5.70
2023-12-28T03:47:41.510Z,5.57
2023-12-28T03:50:09.427Z,5.30
2023-12-28T03:52:36.889Z,5.00
2023-12-28T03:55:04.490Z,6.20
2023-12-28T03:57:31.817Z,5.32
2023-12-28T03:59:59.162Z,5.45
2023-12-28T04:02:28.987Z,5.60
2023-12-28T04:04:57.044Z,5.50
2023-12-28T04:07:24.406Z,5.38
2023-12-28T04:09:53.121Z,5.30
2023-12-28T04:12:20.521Z,5.18
2023-12-28T04:14:48.011Z,5.43
2023-12-28T04:17:15.338Z,6.10
2023-12-28T04:19:42.680Z,5.22
2023-12-28T04:22:10.120Z,5.85
2023-12-28T04:24:38.399Z,6.07
2023-12-28T04:27:05.714Z,6.50
2023-12-28T04:29:33.068Z,6.78
2023-12-28T04:32:00.559Z,7.65
2023-12-28T04:34:27.881Z,7.63
2023-12-28T04:36:55.320Z,7.15
2023-12-28T04:39:22.648Z,8.63
2023-12-28T04:41:50.434Z,7.68
2023-12-28T04:44:17.714Z,7.43
2023-12-28T04:46:50.463Z,7.90
2023-12-28T04:49:17.962Z,7.32
2023-12-28T04:51:48.536Z,7.05
2023-12-28T04:54:16.888Z,6.88
2023-12-28T04:56:46.105Z,6.93
2023-12-28T04:59:13.686Z,6.65
2023-12-28T05:01:44.711Z,7.75
2023-12-28T05:04:16.514Z,9.38
2023-12-28T05:06:45.356Z,9.00
2023-12-28T05:09:14.586Z,9.52
2023-12-28T05:11:41.873Z,8.65
2023-12-28T05:14:10.817Z,8.63
2023-12-28T05:16:38.706Z,9.45
2023-12-28T05:19:06.091Z,9.18
2023-12-28T05:21:33.448Z,9.73
2023-12-28T05:24:00.682Z,9.50
2023-12-28T05:26:28.407Z,7.85
2023-12-28T05:28:55.722Z,9.73
2023-12-28T05:31:23.096Z,9.48
2023-12-28T05:33:50.562Z,9.30
2023-12-28T05:36:20.773Z,9.25
2023-12-28T05:38:48.793Z,10.00
2023-12-28T05:41:16.119Z,9.02
2023-12-28T05:43:43.436Z,8.82
2023-12-28T05:46:10.687Z,9.32
2023-12-28T05:48:38.109Z,8.75
2023-12-28T05:51:05.888Z,8.88
2023-12-28T05:53:33.357Z,8.90
2023-12-28T05:56:04.346Z,9.52
2023-12-28T05:58:31.674Z,10.10
2023-12-28T06:00:59.033Z,11.65
2023-12-28T06:03:29.504Z,11.32
2023-12-28T06:05:57.089Z,11.48
2023-12-28T06:08:27.672Z,12.98
2023-12-28T06:10:55.329Z,13.40
2023-12-28T06:13:22.546Z,12.50
2023-12-28T06:15:49.907Z,13.55
2023-12-28T06:18:17.399Z,12.18
2023-12-28T06:20:45.007Z,11.60
2023-12-28T06:23:12.296Z,12.18
2023-12-28T06:25:39.438Z,12.20
2023-12-28T06:28:06.809Z,11.65
2023-12-28T06:30:37.144Z,12.27
2023-12-28T06:33:04.915Z,12.25
2023-12-28T06:35:32.470Z,12.73
2023-12-28T06:37:59.886Z,11.25
2023-12-28T06:40:27.365Z,12.13
2023-12-28T06:42:54.710Z,15.88
2023-12-28T06:45:28.128Z,19.60
2023-12-28T06:47:55.578Z,16.05
2023-12-28T06:50:22.936Z,18.02
2023-12-28T06:52:50.364Z,12.43
2023-12-28T06:55:17.645Z,12.07
2023-12-28T06:57:45.040Z,11.82
2023-12-28T07:00:13.245Z,11.70
2023-12-28T07:02:40.646Z,9.68
2023-12-28T07:05:09.403Z,10.20
2023-12-28T07:07:38.092Z,6.93
2023-12-28T07:10:06.406Z,5.30
2023-12-28T07:12:33.688Z,6.38
2023-12-28T07:15:01.022Z,5.97
2023-12-28T07:17:28.337Z,5.65
2023-12-28T07:19:55.622Z,6.40
2023-12-28T07:22:22.863Z,5.65
2023-12-28T07:24:50.381Z,6.43
2023-12-28T07:27:17.821Z,6.43
2023-12-28T07:29:45.103Z,5.97
2023-12-28T07:32:12.477Z,6.03
2023-12-28T07:34:39.903Z,6.35
2023-12-28T07:37:07.201Z,5.78
2023-12-28T07:39:35.469Z,5.70
2023-12-28T07:42:02.723Z,5.40
2023-12-28T07:44:30.014Z,5.82
2023-12-28T07:46:57.411Z,6.47
2023-12-28T07:49:24.874Z,5.05
2023-12-28T07:51:52.338Z,4.95
2023-12-28T07:54:19.763Z,5.35
2023-12-28T07:56:47.391Z,5.80
2023-12-28T07:59:14.680Z,5.53
2023-12-28T08:01:42.146Z,5.97
2023-12-28T08:04:09.636Z,6.20
2023-12-28T08:06:37.209Z,6.13
2023-12-28T08:09:05.090Z,6.10
2023-12-28T08:11:32.449Z,5.28
2023-12-28T08:13:59.694Z,5.90
2023-12-28T08:16:28.657Z,6.53
2023-12-28T08:18:56.001Z,5.63
2023-12-28T08:21:23.329Z,5.95
2023-12-28T08:23:50.625Z,6.15
2023-12-28T08:26:17.924Z,6.55
2023-12-28T08:28:45.153Z,5.70
2023-12-28T08:31:13.668Z,5.60
2023-12-28T08:33:41.300Z,6.13
2023-12-28T08:36:09.743Z,6.03
2023-12-28T08:38:37.048Z,7.15
2023-12-28T08:41:09.638Z,5.93
2023-12-28T08:43:37.824Z,5.68
2023-12-28T08:46:08.441Z,5.78
2023-12-28T08:48:35.929Z,5.43
2023-12-28T08:51:03.285Z,5.47
2023-12-28T08:53:30.703Z,5.78
2023-12-28T08:55:57.945Z,5.85
2023-12-28T08:58:25.363Z,5.43
2023-12-28T09:00:52.927Z,6.00
2023-12-28T09:03:21.535Z,5.80
2023-12-28T09:05:50.296Z,5.72
2023-12-28T09:08:17.701Z,5.35
2023-12-28T09:10:44.954Z,5.60
2023-12-28T09:13:17.433Z,5.30
2023-12-28T09:15:45.016Z,6.68
2023-12-28T09:18:12.575Z,5.68
2023-12-28T09:20:40.150Z,6.88
2023-12-28T09:23:07.471Z,5.47
2023-12-28T09:25:34.661Z,7.80
2023-12-28T09:28:02.345Z,6.68
2023-12-28T09:30:30.933Z,5.70
2023-12-28T09:33:02.828Z,6.13
2023-12-28T09:35:30.510Z,6.47
2023-12-28T09:37:57.977Z,5.43
2023-12-28T09:40:26.399Z,5.65
2023-12-28T09:43:07.656Z,5.68
2023-12-28T09:45:38.801Z,5.82
2023-12-28T09:48:08.040Z,5.43
2023-12-28T09:50:43.034Z,5.45
2023-12-28T09:53:10.347Z,5.53
2023-12-28T09:55:38.087Z,5.75
2023-12-28T09:58:08.556Z,5.82
2023-12-28T10:00:38.782Z,6.10
2023-12-28T10:03:06.182Z,6.50
2023-12-28T10:05:33.634Z,6.28
2023-12-28T10:08:00.965Z,6.18
2023-12-28T10:10:30.299Z,6.82
2023-12-28T10:12:58.014Z,7.32
2023-12-28T10:15:27.157Z,6.50
2023-12-28T10:17:54.558Z,6.88
2023-12-28T10:20:21.922Z,6.53
2023-12-28T10:22:49.181Z,6.32
2023-12-28T10:25:19.058Z,5.53
2023-12-28T10:27:46.500Z,6.32
2023-12-28T10:30:14.120Z,6.82
2023-12-28T10:32:42.481Z,5.72
2023-12-28T10:35:10.273Z,6.47
2023-12-28T10:37:38.237Z,6.00
2023-12-28T10:40:09.351Z,6.25
2023-12-28T10:42:58.729Z,6.50
2023-12-28T10:45:27.170Z,6.47
2023-12-28T10:48:12.358Z,7.00
2023-12-28T10:50:42.564Z,7.03
2023-12-28T10:53:40.296Z,7.15
2023-12-28T10:56:32.957Z,6.20
2023-12-28T10:59:22.288Z,6.10
2023-12-28T11:01:52.485Z,6.30
2023-12-28T11:04:32.599Z,5.60
2023-12-28T11:07:00.541Z,5.95
2023-12-28T11:09:28.391Z,6.00
2023-12-28T11:11:55.991Z,6.68
2023-12-28T11:14:23.293Z,6.20
2023-12-28T11:16:50.564Z,7.25
2023-12-28T11:19:17.887Z,7.05
2023-12-28T11:21:45.334Z,6.80
2023-12-28T11:24:13.696Z,6.57
2023-12-28T11:26:41.152Z,9.00
2023-12-28T11:29:08.389Z,6.70
2023-12-28T11:31:36.225Z,6.43
2023-12-28T11:34:05.761Z,6.75
2023-12-28T11:36:44.764Z,8.25
2023-12-28T11:39:12.201Z,6.13
2023-12-28T11:41:39.585Z,6.68
2023-12-28T11:44:07.769Z,5.93
2023-12-28T11:46:39.185Z,5.57
2023-12-28T11:49:10.665Z,5.78
2023-12-28T11:51:39.872Z,6.85
2023-12-28T11:54:07.586Z,6.30
2023-12-28T11:56:35.152Z,7.20
2023-12-28T11:59:02.601Z,5.80
2023-12-28T12:01:29.987Z,6.60
2023-12-28T12:03:57.317Z,6.60
2023-12-28T12:06:25.463Z,6.25
2023-12-28T12:08:52.838Z,7.28
2023-12-28T12:11:20.200Z,5.70
2023-12-28T12:13:47.616Z,6.40
2023-12-28T12:16:17.665Z,6.15
2023-12-28T12:18:48.616Z,6.60
2023-12-28T12:21:16.780Z,7.97
2023-12-28T12:23:44.115Z,7.47
2023-12-28T12:26:12.555Z,7.15
2023-12-28T12:28:41.011Z,7.20
2023-12-28T12:31:10.167Z,8.23
2023-12-28T12:33:37.574Z,6.82
2023-12-28T12:36:06.985Z,6.93
2023-12-28T12:38:34.352Z,6.70
2023-12-28T12:41:01.621Z,6.97
2023-12-28T12:43:28.994Z,6.13
2023-12-28T12:45:56.276Z,6.60
2023-12-28T12:48:23.938Z,5.00
2023-12-28T12:50:53.426Z,4.28
2023-12-28T12:53:20.670Z,3.97
2023-12-28T12:55:50.132Z,3.35
2023-12-28T12:58:18.301Z,5.43
2023-12-28T13:00:47.402Z,9.73
2023-12-28T13:03:14.718Z,8.75
2023-12-28T13:05:45.275Z,4.50
2023-12-28T13:08:12.619Z,4.00
2023-12-28T13:10:39.848Z,3.05
2023-12-28T13:13:10.352Z,3.80
2023-12-28T13:15:37.770Z,3.60
2023-12-28T13:18:05.288Z,3.33
2023-12-28T13:20:33.276Z,3.70
2023-12-28T13:23:01.953Z,3.50
2023-12-28T13:25:30.095Z,3.70
2023-12-28T13:27:57.416Z,3.38
2023-12-28T13:30:27.762Z,3.70
2023-12-28T13:32:57.854Z,3.33
2023-12-28T13:35:25.469Z,3.25
2023-12-28T13:37:52.812Z,3.65
2023-12-28T13:40:20.509Z,3.05
2023-12-28T13:42:48.440Z,3.50
2023-12-28T13:45:15.738Z,3.20
2023-12-28T13:47:46.161Z,3.17
2023-12-28T13:50:13.626Z,3.75
2023-12-28T13:52:40.956Z,4.75
2023-12-28T13:55:08.878Z,5.32
2023-12-28T13:57:36.199Z,5.63
2023-12-28T14:00:03.856Z,4.80
2023-12-28T14:02:40.871Z,4.65
2023-12-28T14:05:09.132Z,5.32
2023-12-28T14:07:36.740Z,3.75
2023-12-28T14:10:04.857Z,4.85
2023-12-28T14:12:32.301Z,5.72
2023-12-28T14:14:59.810Z,5.22
2023-12-28T14:17:27.238Z,4.57
2023-12-28T14:19:54.758Z,4.40
2023-12-28T14:22:22.649Z,4.78
2023-12-28T14:24:50.596Z,4.53
2023-12-28T14:27:18.591Z,4.13
2023-12-28T14:29:46.576Z,4.03
2023-12-28T14:32:14.355Z,4.65
2023-12-28T14:34:42.027Z,4.45
2023-12-28T14:37:09.427Z,5.05
2023-12-28T14:39:36.808Z,5.65
2023-12-28T14:42:05.048Z,4.63
2023-12-28T14:44:32.581Z,6.40
2023-12-28T14:46:59.956Z,6.80
2023-12-28T14:49:27.399Z,5.63
2023-12-28T14:51:57.838Z,6.07
2023-12-28T14:54:25.215Z,5.28
2023-12-28T14:56:55.573Z,4.63
2023-12-28T14:59:23.291Z,5.07
2023-12-28T15:01:51.608Z,4.60
2023-12-28T15:04:20.606Z,5.93
2023-12-28T15:06:49.139Z,8.85
2023-12-28T15:09:16.365Z,7.45
2023-12-28T15:11:48.694Z,9.25
2023-12-28T15:14:18.309Z,9.27
2023-12-28T15:16:46.300Z,11.55
2023-12-28T15:19:14.641Z,12.95
2023-12-28T15:21:45.631Z,12.77
2023-12-28T15:24:13.721Z,13.73
2023-12-28T15:26:41.087Z,11.98
2023-12-28T15:29:09.698Z,11.23
2023-12-28T15:31:37.064Z,13.02
2023-12-28T15:34:04.612Z,12.48
2023-12-28T15:36:32.377Z,11.52
2023-12-28T15:38:59.954Z,16.40
2023-12-28T15:41:27.162Z,15.23
2023-12-28T15:43:54.413Z,15.55
2023-12-28T15:46:21.653Z,12.75
2023-12-28T15:48:49.043Z,11.43
2023-12-28T15:51:16.426Z,12.07
2023-12-28T15:53:43.750Z,9.65
2023-12-28T15:56:18.357Z,10.02
2023-12-28T15:58:47.087Z,9.93
2023-12-28T16:01:14.963Z,10.50
2023-12-28T16:03:42.334Z,11.55
2023-12-28T16:06:10.512Z,12.18
2023-12-28T16:08:40.482Z,11.73
2023-12-28T16:11:07.966Z,12.10
2023-12-28T16:13:38.060Z,11.15
2023-12-28T16:16:09.842Z,10.88
2023-12-28T16:18:40.825Z,10.87
2023-12-28T16:21:09.657Z,10.82
2023-12-28T16:23:37.568Z,11.05
2023-12-28T16:26:05.142Z,11.40
2023-12-28T16:28:37.094Z,11.30
2023-12-28T16:31:05.391Z,12.05
2023-12-28T16:33:35.893Z,13.35
2023-12-28T16:36:04.552Z,13.27
2023-12-28T16:38:34.458Z,15.02
2023-12-28T16:41:02.405Z,15.20
2023-12-28T16:43:39.894Z,15.63
2023-12-28T16:46:07.313Z,16.17
2023-12-28T16:48:34.963Z,15.65
2023-12-28T16:51:03.804Z,15.88
2023-12-28T16:53:31.394Z,15.13
2023-12-28T16:55:59.142Z,14.50
2023-12-28T16:58:26.487Z,13.35
2023-12-28T17:00:55.096Z,11.50
2023-12-28T17:03:22.656Z,11.20
2023-12-28T17:05:50.840Z,11.65
2023-12-28T17:08:18.265Z,11.52
2023-12-28T17:10:45.821Z,11.10
2023-12-28T17:13:13.690Z,11.02
2023-12-28T17:15:41.304Z,11.57
2023-12-28T17:18:13.405Z,10.65
2023-12-28T17:20:41.108Z,10.93
2023-12-28T17:23:38.602Z,11.27
2023-12-28T17:26:25.051Z,12.45
2023-12-28T17:29:07.768Z,12.10
2023-12-28T17:31:37.266Z,12.77
2023-12-28T17:34:07.662Z,13.10
2023-12-28T17:36:36.133Z,12.07
2023-12-28T17:39:12.543Z,11.88
2023-12-28T17:41:41.794Z,13.13
2023-12-28T17:44:17.409Z,11.75
2023-12-28T17:46:53.436Z,12.20
2023-12-28T17:49:31.598Z,11.98
2023-12-28T17:52:00.578Z,11.75
2023-12-28T17:54:28.123Z,10.82
2023-12-28T17:56:55.586Z,12.65
2023-12-28T17:59:23.401Z,13.07
2023-12-28T18:01:57.017Z,11.13
2023-12-28T18:04:24.480Z,11.00
2023-12-28T18:06:53.707Z,10.85
2023-12-28T18:09:24.250Z,10.35
2023-12-28T18:11:53.276Z,9.60
2023-12-28T18:14:24.553Z,9.65
2023-12-28T18:16:52.062Z,9.75
2023-12-28T18:19:19.370Z,8.95
2023-12-28T18:21:51.538Z,9.68
2023-12-28T18:24:19.162Z,10.35
2023-12-28T18:26:46.932Z,9.60
2023-12-28T18:29:14.259Z,9.75
2023-12-28T18:31:41.513Z,10.27
2023-12-28T18:34:09.040Z,10.02
2023-12-28T18:36:41.238Z,10.05
2023-12-28T18:41:40.130Z,10.25
2023-12-28T18:44:07.400Z,9.27
2023-12-28T18:46:34.791Z,9.80
2023-12-28T18:49:02.235Z,10.75
2023-12-28T18:51:29.677Z,9.20
2023-12-28T18:53:56.882Z,9.93
2023-12-28T18:56:24.187Z,10.20
2023-12-28T18:58:51.419Z,9.77
2023-12-28T19:01:19.124Z,9.77
2023-12-28T19:03:48.148Z,9.20
2023-12-28T19:06:18.566Z,10.90
2023-12-28T19:08:45.799Z,10.25
2023-12-28T19:11:17.112Z,10.20
2023-12-28T19:13:44.634Z,9.88
2023-12-28T19:16:21.938Z,9.45
2023-12-28T19:18:50.879Z,10.05
2023-12-28T19:21:19.875Z,11.27
2023-12-28T19:23:47.325Z,9.15
2023-12-28T19:26:15.421Z,9.27
2023-12-28T19:28:42.641Z,9.30
2023-12-28T19:31:10.619Z,8.80
2023-12-28T19:33:38.306Z,9.27
2023-12-28T19:36:06.077Z,8.88
2023-12-28T19:38:33.385Z,9.70
2023-12-28T19:41:02.808Z,9.32
2023-12-28T19:43:30.178Z,9.80
2023-12-28T19:45:57.509Z,9.32
2023-12-28T19:48:25.677Z,9.13
2023-12-28T19:50:53.068Z,8.57
2023-12-28T19:53:21.515Z,9.00
2023-12-28T19:55:49.940Z,9.35
2023-12-28T19:58:17.589Z,9.35
2023-12-28T20:00:46.741Z,9.73
2023-12-28T20:03:14.187Z,9.38
2023-12-28T20:05:42.146Z,9.90
2023-12-28T20:08:09.460Z,10.30
2023-12-28T20:10:37.924Z,9.40
2023-12-28T20:13:05.654Z,10.43
2023-12-28T20:15:33.039Z,10.45
2023-12-28T20:18:01.751Z,10.20
2023-12-28T20:20:29.386Z,10.35
2023-12-28T20:22:56.871Z,10.60
2023-12-28T20:25:24.192Z,10.07
2023-12-28T20:27:51.750Z,10.13
2023-12-28T20:30:21.557Z,10.63
2023-12-28T20:32:49.067Z,9.80
2023-12-28T20:35:16.316Z,10.93
2023-12-28T20:37:43.565Z,10.23
2023-12-28T20:40:11.391Z,10.88
2023-12-28T20:42:38.762Z,10.30
2023-12-28T20:45:06.650Z,10.50
2023-12-28T20:47:33.948Z,11.23
2023-12-28T20:50:01.961Z,10.27
2023-12-28T20:52:29.611Z,11.35
2023-12-28T20:54:59.407Z,10.57
2023-12-28T20:57:31.211Z,11.48
2023-12-28T20:59:59.056Z,11.93
2023-12-28T21:02:28.938Z,11.10
2023-12-28T21:04:56.264Z,11.77
2023-12-28T21:07:23.932Z,11.27
2023-12-28T21:09:51.316Z,11.40
2023-12-28T21:12:25.274Z,12.02
2023-12-28T21:14:54.021Z,11.40
2023-12-28T21:17:21.840Z,11.85
2023-12-28T21:19:49.330Z,12.10
2023-12-28T21:22:17.665Z,12.00
2023-12-28T21:24:45.277Z,11.30
2023-12-28T21:27:12.582Z,12.77
2023-12-28T21:29:40.742Z,12.75
2023-12-28T21:32:08.741Z,12.13
2023-12-28T21:34:38.771Z,11.93
2023-12-28T21:37:06.474Z,12.18
2023-12-28T21:39:35.302Z,11.93
2023-12-28T21:42:04.403Z,11.98
2023-12-28T21:44:32.098Z,12.30
2023-12-28T21:47:00.079Z,11.95
2023-12-28T21:49:27.619Z,12.43
2023-12-28T21:51:55.170Z,12.60
2023-12-28T21:54:22.465Z,12.38
2023-12-28T21:56:49.673Z,12.70
2023-12-28T21:59:19.732Z,12.23
2023-12-28T22:01:47.310Z,12.40
2023-12-28T22:04:14.799Z,12.85
2023-12-28T22:06:43.320Z,12.57
2023-12-28T22:09:12.449Z,11.75
2023-12-28T22:11:39.926Z,12.45
2023-12-28T22:14:07.204Z,13.52
2023-12-28T22:16:34.721Z,11.48
2023-12-28T22:19:02.503Z,12.48
2023-12-28T22:21:32.746Z,12.60
2023-12-28T22:24:01.270Z,13.38
2023-12-28T22:26:28.809Z,12.95
2023-12-28T22:28:58.677Z,12.20
2023-12-28T22:31:26.289Z,12.25
2023-12-28T22:33:53.687Z,12.02
2023-12-28T22:36:23.523Z,12.48
2023-12-28T22:38:53.559Z,12.40
2023-12-28T22:41:21.056Z,11.95
2023-12-28T22:43:48.315Z,12.63
2023-12-28T22:46:15.495Z,12.48
2023-12-28T22:48:42.879Z,12.45
2023-12-28T22:51:10.136Z,13.77
2023-12-28T22:53:37.523Z,14.55
2023-12-28T22:56:05.306Z,15.65
2023-12-28T22:58:33.177Z,15.93
2023-12-28T23:01:01.101Z,17.38
2023-12-28T23:03:28.984Z,16.92
2023-12-28T23:05:56.355Z,16.80
2023-12-28T23:08:23.746Z,16.80
2023-12-28T23:10:51.578Z,17.08
2023-12-28T23:13:18.829Z,16.42
2023-12-28T23:15:46.119Z,15.10
2023-12-28T23:18:13.941Z,8.00
2023-12-28T23:20:41.414Z,4.88
2023-12-28T23:23:08.645Z,4.45
2023-12-28T23:25:35.857Z,4.13
2023-12-28T23:28:06.394Z,4.20
2023-12-28T23:30:33.818Z,4.30
2023-12-28T23:33:03.628Z,3.75
2023-12-28T23:35:33.508Z,4.10
2023-12-28T23:38:01.178Z,3.53
2023-12-28T23:40:28.489Z,4.00
2023-12-28T23:42:55.817Z,4.72
2023-12-28T23:45:23.107Z,4.93
2023-12-28T23:47:50.383Z,4.07
2023-12-28T23:50:17.710Z,4.10
2023-12-28T23:52:45.238Z,3.63
2023-12-28T23:55:13.203Z,3.33
2023-12-28T23:57:40.601Z,3.50
